Time;durP1;ratioP1;P1;durP2;ratioP2;P2;SDS_P1;SDS_P2;PMS_P1;PMS_P2;Temp;Humidity;BMP_temperature;BMP_pressure;BME280_temperature;BME280_humidity;BME280_pressure;Samples;Min_cycle;Max_cycle;Signal;HPM_P1;HPM_P2
2023/01/31 00:01:28;;;;;;;31.95;3.65;;;5.40;99.90;;;;;;4942950;28;20019;-85
2023/01/31 00:03:57;;;;;;;18.58;3.50;;;5.40;99.90;;;;;;4943516;28;20499;-85
2023/01/31 00:06:25;;;;;;;26.13;3.55;;;5.40;99.90;;;;;;4940651;28;20027;-86
2023/01/31 00:08:52;;;;;;;23.70;3.08;;;5.40;99.90;;;;;;4940858;28;20062;-85
2023/01/31 00:11:20;;;;;;;18.63;3.90;;;5.50;99.90;;;;;;4939607;28;20039;-85
2023/01/31 00:13:46;;;;;;;22.90;2.92;;;5.40;99.90;;;;;;4940979;28;20062;-90
2023/01/31 00:16:13;;;;;;;28.50;2.47;;;5.40;99.90;;;;;;4939313;28;20530;-90
2023/01/31 00:18:39;;;;;;;16.30;2.55;;;5.40;99.90;;;;;;4942975;28;20040;-88
2023/01/31 00:21:09;;;;;;;19.02;2.83;;;5.30;99.90;;;;;;4938613;28;20059;-87
2023/01/31 00:23:37;;;;;;;34.65;3.28;;;5.30;99.90;;;;;;4938386;28;20027;-90
2023/01/31 00:26:17;;;;;;;26.08;3.38;;;5.30;99.90;;;;;;4940579;28;20062;-89
2023/01/31 00:28:44;;;;;;;25.73;3.63;;;5.20;99.90;;;;;;4939799;28;20062;-89
2023/01/31 00:31:14;;;;;;;25.83;3.53;;;5.20;99.90;;;;;;4935237;28;20430;-86
2023/01/31 00:33:43;;;;;;;25.05;3.20;;;5.10;99.90;;;;;;4929871;28;20055;-86
2023/01/31 00:36:12;;;;;;;24.23;3.08;;;5.10;99.90;;;;;;4938396;28;20031;-89
2023/01/31 00:38:38;;;;;;;18.88;3.10;;;5.00;99.90;;;;;;4929741;28;20583;-88
2023/01/31 00:41:04;;;;;;;19.52;3.20;;;5.00;99.90;;;;;;4940461;28;20047;-86
2023/01/31 00:43:31;;;;;;;21.38;2.90;;;5.00;99.90;;;;;;4942024;28;20427;-87
2023/01/31 00:45:58;;;;;;;31.48;4.07;;;5.00;99.90;;;;;;4940406;28;20023;-86
2023/01/31 00:48:23;;;;;;;27.05;3.60;;;5.00;99.90;;;;;;4938488;28;20027;-87
2023/01/31 00:50:49;;;;;;;29.15;3.33;;;5.00;99.90;;;;;;4940882;28;20530;-86
2023/01/31 00:53:17;;;;;;;18.25;2.70;;;5.00;99.90;;;;;;4944989;28;20086;-87
2023/01/31 00:55:43;;;;;;;15.73;2.70;;;4.90;99.90;;;;;;4944251;28;20083;-86
2023/01/31 00:58:09;;;;;;;22.83;3.92;;;4.90;99.90;;;;;;4943210;28;20018;-86
2023/01/31 01:00:34;;;;;;;19.30;2.53;;;4.90;99.90;;;;;;4944331;28;20035;-87
2023/01/31 01:03:00;;;;;;;27.02;3.25;;;4.80;99.90;;;;;;4935723;28;20436;-88
2023/01/31 01:05:26;;;;;;;26.77;3.50;;;4.80;99.90;;;;;;4939565;28;20415;-86
2023/01/31 01:07:51;;;;;;;18.25;2.78;;;4.80;99.90;;;;;;4934197;28;20058;-86
2023/01/31 01:10:17;;;;;;;20.02;3.63;;;4.80;99.90;;;;;;4935091;28;20041;-88
2023/01/31 01:12:43;;;;;;;24.90;2.95;;;4.80;99.90;;;;;;4941558;28;20641;-86
2023/01/31 01:15:08;;;;;;;27.27;4.57;;;4.80;99.90;;;;;;4944882;28;20030;-86
2023/01/31 01:17:34;;;;;;;17.15;3.15;;;4.70;99.90;;;;;;4941325;28;20027;-85
2023/01/31 01:20:02;;;;;;;27.33;3.10;;;4.70;99.90;;;;;;4940407;28;20027;-85
2023/01/31 01:22:29;;;;;;;20.13;3.40;;;4.70;99.90;;;;;;4937348;28;20036;-86
2023/01/31 01:24:55;;;;;;;29.05;3.25;;;4.70;99.90;;;;;;4942179;28;20036;-89
2023/01/31 01:27:21;;;;;;;15.10;3.28;;;4.70;99.90;;;;;;4943836;28;20460;-89
2023/01/31 01:29:46;;;;;;;21.50;3.33;;;4.60;99.90;;;;;;4942060;28;20039;-87
2023/01/31 01:32:12;;;;;;;22.23;3.15;;;4.60;99.90;;;;;;4931684;28;20028;-91
2023/01/31 01:34:38;;;;;;;19.13;3.10;;;4.60;99.90;;;;;;4942081;28;20478;-89
2023/01/31 01:37:10;;;;;;;29.80;3.13;;;4.60;99.90;;;;;;4943552;28;20114;-89
2023/01/31 01:39:39;;;;;;;30.73;3.58;;;4.60;99.90;;;;;;4937250;28;20031;-92
2023/01/31 01:42:07;;;;;;;18.50;2.83;;;4.60;99.90;;;;;;4938612;28;20031;-89
2023/01/31 01:44:58;;;;;;;20.92;3.20;;;4.60;99.90;;;;;;4940724;28;20034;-89
2023/01/31 01:47:50;;;;;;;17.20;3.20;;;4.60;99.90;;;;;;4941244;28;20592;-88
2023/01/31 01:50:38;;;;;;;28.27;3.88;;;4.50;99.90;;;;;;4938523;28;20518;-89
2023/01/31 01:53:11;;;;;;;17.75;2.47;;;4.60;99.90;;;;;;4936411;28;20023;-89
2023/01/31 01:55:52;;;;;;;22.60;2.70;;;4.50;99.90;;;;;;4944413;28;20042;-89
2023/01/31 01:58:23;;;;;;;24.77;3.67;;;4.50;99.90;;;;;;4941096;28;20016;-89
2023/01/31 02:00:49;;;;;;;25.67;3.53;;;4.50;99.90;;;;;;4939020;28;20024;-89
2023/01/31 02:03:15;;;;;;;21.75;3.28;;;4.50;99.90;;;;;;4945518;28;20047;-88
2023/01/31 02:05:46;;;;;;;20.95;2.97;;;4.50;99.90;;;;;;4945548;28;20016;-88
2023/01/31 02:08:18;;;;;;;32.40;4.07;;;4.60;99.90;;;;;;4934984;28;20993;-89
2023/01/31 02:10:50;;;;;;;;;;;4.50;99.90;;;;;;4936571;28;20070;-85
2023/01/31 02:13:17;;;;;;;14.45;2.65;;;4.50;99.90;;;;;;4957255;28;19907;-88
2023/01/31 02:15:43;;;;;;;20.45;3.55;;;4.50;99.90;;;;;;4939816;28;20045;-89
2023/01/31 02:18:09;;;;;;;26.40;2.95;;;4.50;99.90;;;;;;4940862;28;20627;-88
2023/01/31 02:21:15;;;;;;;19.73;2.78;;;4.50;99.90;;;;;;4942211;28;20031;-85
2023/01/31 02:23:46;;;;;;;29.65;3.28;;;4.40;99.90;;;;;;4937245;28;20114;-87
2023/01/31 02:26:37;;;;;;;22.80;3.20;;;4.40;99.90;;;;;;4937091;28;20460;-86
2023/01/31 02:29:38;;;;;;;20.52;3.35;;;4.40;99.90;;;;;;4939339;28;20064;-88
2023/01/31 02:32:21;;;;;;;21.23;3.40;;;4.40;99.90;;;;;;4935110;28;20043;-86
2023/01/31 02:34:55;;;;;;;13.90;2.60;;;4.40;99.90;;;;;;4934930;28;20082;-87
2023/01/31 02:37:52;;;;;;;19.70;3.65;;;4.50;99.90;;;;;;4937173;28;20034;-88
2023/01/31 02:40:33;;;;;;;21.10;2.75;;;4.50;99.90;;;;;;4935521;28;20034;-84
2023/01/31 02:43:22;;;;;;;21.38;3.42;;;4.50;99.90;;;;;;4936125;28;20027;-87
2023/01/31 02:45:57;;;;;;;18.73;3.08;;;4.50;99.90;;;;;;4935987;28;20115;-87
2023/01/31 02:48:37;;;;;;;16.67;3.22;;;4.50;99.90;;;;;;4942504;28;20482;-87
2023/01/31 02:51:14;;;;;;;20.40;3.05;;;4.50;99.90;;;;;;4949613;28;20050;-87
2023/01/31 02:53:52;;;;;;;21.92;3.33;;;4.60;99.90;;;;;;4949302;28;20568;-88
2023/01/31 02:56:27;;;;;;;23.55;3.63;;;4.60;99.90;;;;;;4966020;28;20034;-86
2023/01/31 02:59:07;;;;;;;20.27;3.50;;;4.60;99.90;;;;;;4946547;28;20034;-85
2023/01/31 03:01:40;;;;;;;19.83;3.13;;;4.60;99.90;;;;;;4966127;28;20562;-86
2023/01/31 03:04:07;;;;;;;;;;;4.70;99.90;;;;;;4949980;28;20499;-85
2023/01/31 03:06:36;;;;;;;20.13;3.10;;;4.70;99.90;;;;;;4941106;28;19910;-87
2023/01/31 03:09:25;;;;;;;22.02;3.38;;;4.70;99.90;;;;;;4936221;28;20260;-89
2023/01/31 03:11:52;;;;;;;29.25;3.42;;;4.70;99.90;;;;;;4936587;28;20043;-86
2023/01/31 03:14:17;;;;;;;22.60;3.70;;;4.80;99.90;;;;;;4936413;28;20036;-89
2023/01/31 03:19:48;;;;;;;18.77;3.55;;;4.80;99.90;;;;;;4937977;28;20080;-88
2023/01/31 03:22:25;;;;;;;14.88;2.78;;;4.80;99.90;;;;;;4947259;28;20015;-86
2023/01/31 03:24:52;;;;;;;27.13;3.38;;;4.80;99.90;;;;;;4943051;28;20031;-86
2023/01/31 03:27:21;;;;;;;25.42;4.57;;;4.80;99.90;;;;;;4956862;28;20028;-89
2023/01/31 03:29:48;;;;;;;29.58;3.33;;;4.80;99.90;;;;;;4949697;28;20251;-87
2023/01/31 03:32:23;;;;;;;24.98;3.88;;;4.80;99.90;;;;;;4948906;28;20495;-89
2023/01/31 03:34:50;;;;;;;19.13;4.07;;;4.80;99.90;;;;;;4947388;28;20028;-86
2023/01/31 03:37:39;;;;;;;18.60;3.92;;;4.90;99.90;;;;;;4938800;28;20500;-82
2023/01/31 03:40:11;;;;;;;24.52;3.63;;;4.90;99.90;;;;;;4950399;28;20035;-85
2023/01/31 03:42:53;;;;;;;21.17;3.85;;;4.90;99.90;;;;;;4939257;28;20046;-88
2023/01/31 03:45:40;;;;;;;16.15;3.90;;;4.90;99.90;;;;;;4944401;28;20034;-89
2023/01/31 03:48:13;;;;;;;25.77;4.22;;;4.90;99.90;;;;;;4936159;28;20031;-89
2023/01/31 03:50:43;;;;;;;22.20;3.72;;;5.00;99.90;;;;;;4940196;28;20364;-89
2023/01/31 03:53:08;;;;;;;22.90;3.95;;;5.00;99.90;;;;;;4934251;28;20024;-86
2023/01/31 03:55:59;;;;;;;16.17;3.70;;;5.00;99.90;;;;;;4950199;28;20200;-86
2023/01/31 03:58:29;;;;;;;21.92;4.25;;;5.10;99.90;;;;;;4930351;28;20012;-84
2023/01/31 04:00:57;;;;;;;30.42;4.47;;;5.10;99.90;;;;;;4937111;28;20581;-87
2023/01/31 04:03:37;;;;;;;21.80;5.13;;;5.20;99.90;;;;;;4940289;28;20445;-87
2023/01/31 04:06:03;;;;;;;25.10;4.78;;;5.30;99.90;;;;;;4936035;28;20028;-88
2023/01/31 04:08:31;;;;;;;27.60;5.03;;;5.30;99.90;;;;;;4939578;28;20382;-86
2023/01/31 04:11:00;;;;;;;30.33;5.63;;;5.30;99.90;;;;;;4941745;28;20396;-88
2023/01/31 04:13:28;;;;;;;18.08;4.70;;;5.40;99.90;;;;;;4935083;28;20190;-89
2023/01/31 04:15:56;;;;;;;24.40;5.43;;;5.40;99.90;;;;;;4935869;28;20027;-88
2023/01/31 04:18:22;;;;;;;27.17;5.65;;;5.40;99.90;;;;;;4942588;28;20694;-88
2023/01/31 04:20:47;;;;;;;30.98;6.50;;;5.50;99.90;;;;;;4941556;28;20119;-88
2023/01/31 04:23:13;;;;;;;25.60;5.50;;;5.60;99.90;;;;;;4933070;28;20028;-88
2023/01/31 04:25:38;;;;;;;23.00;5.30;;;5.60;99.90;;;;;;4942800;28;20035;-87
2023/01/31 04:28:04;;;;;;;28.92;5.32;;;5.70;99.90;;;;;;4939210;28;20233;-86
2023/01/31 04:30:30;;;;;;;37.47;5.95;;;5.60;99.90;;;;;;4937816;28;20534;-87
2023/01/31 04:32:56;;;;;;;20.33;4.90;;;5.70;99.90;;;;;;4948593;28;20030;-88
2023/01/31 04:35:21;;;;;;;27.40;6.70;;;5.70;99.90;;;;;;4945475;28;20270;-87
2023/01/31 04:37:47;;;;;;;30.08;6.10;;;5.70;99.90;;;;;;4955414;28;20027;-86
2023/01/31 04:40:13;;;;;;;23.77;5.82;;;5.70;99.90;;;;;;4940780;28;20027;-86
2023/01/31 04:42:39;;;;;;;31.10;6.28;;;5.70;99.90;;;;;;4937902;28;20386;-87
2023/01/31 04:45:04;;;;;;;34.95;6.55;;;5.70;99.90;;;;;;4940693;28;20542;-85
2023/01/31 04:47:30;;;;;;;28.15;7.60;;;5.70;99.90;;;;;;4946255;28;20179;-89
2023/01/31 04:49:58;;;;;;;28.45;7.15;;;5.70;99.90;;;;;;4944767;28;20035;-88
2023/01/31 04:52:24;;;;;;;25.42;6.97;;;5.60;99.90;;;;;;4945839;28;20039;-88
2023/01/31 04:54:50;;;;;;;24.67;6.72;;;5.70;99.90;;;;;;4946546;28;20494;-87
2023/01/31 04:57:17;;;;;;;27.95;6.65;;;5.70;99.90;;;;;;4936926;28;20051;-87
2023/01/31 04:59:43;;;;;;;32.95;7.15;;;5.70;99.90;;;;;;4940763;28;20324;-88
2023/01/31 05:02:08;;;;;;;26.45;7.53;;;5.70;99.90;;;;;;4953278;28;20030;-90
2023/01/31 05:04:34;;;;;;;36.17;7.10;;;5.60;99.90;;;;;;4948370;28;20160;-89
2023/01/31 05:07:00;;;;;;;29.88;7.32;;;5.60;99.90;;;;;;4945782;28;20122;-87
2023/01/31 05:09:25;;;;;;;23.08;7.20;;;5.70;99.90;;;;;;4946069;28;20038;-88
2023/01/31 05:11:51;;;;;;;24.77;8.10;;;5.70;99.90;;;;;;4947204;28;20041;-88
2023/01/31 05:14:19;;;;;;;33.65;8.30;;;5.70;99.90;;;;;;4938248;28;20103;-89
2023/01/31 05:16:46;;;;;;;23.90;6.57;;;5.60;99.90;;;;;;4946297;28;20767;-85
2023/01/31 05:19:13;;;;;;;26.27;7.25;;;5.60;99.90;;;;;;4945588;28;20032;-86
2023/01/31 05:21:53;;;;;;;36.28;8.77;;;5.60;99.90;;;;;;4940226;28;20518;-86
2023/01/31 05:24:20;;;;;;;35.13;9.18;;;5.60;99.90;;;;;;4940869;28;20662;-87
2023/01/31 05:26:46;;;;;;;39.85;9.25;;;5.70;99.90;;;;;;4944875;28;20032;-87
2023/01/31 05:29:12;;;;;;;27.13;10.35;;;5.60;99.90;;;;;;4946924;28;20034;-86
2023/01/31 05:31:38;;;;;;;34.72;9.23;;;5.60;99.90;;;;;;4942685;28;20049;-86
2023/01/31 05:34:03;;;;;;;32.63;10.10;;;5.60;99.90;;;;;;4946644;28;20114;-87
2023/01/31 05:36:29;;;;;;;30.83;9.07;;;5.50;99.90;;;;;;4945599;28;20083;-88
2023/01/31 05:38:55;;;;;;;40.78;11.55;;;5.50;99.90;;;;;;4943474;28;20054;-88
2023/01/31 05:41:20;;;;;;;36.67;11.13;;;5.50;99.90;;;;;;4939588;28;20173;-87
2023/01/31 05:43:46;;;;;;;28.42;10.57;;;5.50;99.90;;;;;;4947314;28;20476;-87
2023/01/31 05:46:11;;;;;;;36.28;12.63;;;5.50;99.90;;;;;;4940868;28;20047;-83
2023/01/31 05:48:37;;;;;;;37.10;11.30;;;5.60;99.90;;;;;;4954778;28;20031;-85
2023/01/31 05:51:03;;;;;;;38.80;12.57;;;5.60;99.90;;;;;;4933808;28;20032;-83
2023/01/31 05:53:28;;;;;;;37.03;11.68;;;5.60;99.90;;;;;;4932153;28;20034;-87
2023/01/31 05:55:54;;;;;;;29.80;11.20;;;5.50;99.90;;;;;;4934080;28;20035;-89
2023/01/31 05:58:22;;;;;;;37.88;11.75;;;5.60;99.90;;;;;;4940112;28;20165;-84
2023/01/31 06:00:50;;;;;;;49.88;12.30;;;5.60;99.90;;;;;;4935441;28;20539;-85
2023/01/31 06:03:16;;;;;;;31.42;11.23;;;5.70;99.90;;;;;;4944974;28;20027;-87
2023/01/31 06:05:41;;;;;;;35.03;11.35;;;5.70;99.90;;;;;;4936532;28;20038;-86
2023/01/31 06:08:07;;;;;;;28.40;10.20;;;5.70;99.90;;;;;;4941043;28;20047;-85
2023/01/31 06:10:35;;;;;;;54.75;12.02;;;5.60;99.90;;;;;;4939417;28;20066;-88
2023/01/31 06:13:00;;;;;;;30.35;10.75;;;5.70;99.90;;;;;;4945646;28;20111;-88
2023/01/31 06:15:26;;;;;;;36.20;10.40;;;5.70;99.90;;;;;;4935735;28;20122;-88
2023/01/31 06:17:51;;;;;;;45.70;9.50;;;5.70;99.90;;;;;;4947074;28;20185;-88
2023/01/31 06:20:17;;;;;;;38.22;10.40;;;5.70;99.90;;;;;;4944829;28;20023;-89
2023/01/31 06:22:43;;;;;;;28.55;8.93;;;5.70;99.90;;;;;;4944926;28;20197;-89
2023/01/31 06:25:09;;;;;;;31.75;9.35;;;5.70;99.90;;;;;;4946296;28;20447;-86
2023/01/31 06:27:35;;;;;;;25.52;9.02;;;5.70;99.90;;;;;;4949908;28;20027;-88
2023/01/31 06:30:01;;;;;;;34.92;9.38;;;5.70;99.90;;;;;;4937275;28;20123;-84
2023/01/31 06:32:26;;;;;;;28.60;8.27;;;5.70;99.90;;;;;;4938274;28;20041;-89
2023/01/31 06:34:52;;;;;;;30.70;8.25;;;5.70;99.90;;;;;;4938414;28;20026;-87
2023/01/31 06:37:20;;;;;;;29.58;8.35;;;5.70;99.90;;;;;;4938594;28;20432;-85
2023/01/31 06:39:45;;;;;;;36.85;10.05;;;5.60;99.90;;;;;;4933144;28;20027;-89
2023/01/31 06:42:11;;;;;;;30.40;8.35;;;5.70;99.90;;;;;;4946701;28;20074;-89
2023/01/31 06:44:36;;;;;;;24.35;7.05;;;5.70;99.90;;;;;;4935797;28;20039;-84
2023/01/31 06:47:02;;;;;;;33.92;9.55;;;5.70;99.90;;;;;;4949057;28;20030;-84
2023/01/31 06:49:28;;;;;;;22.35;8.70;;;5.70;99.90;;;;;;4934234;28;20034;-86
2023/01/31 06:51:53;;;;;;;46.63;13.10;;;5.80;99.90;;;;;;4937156;28;20063;-87
2023/01/31 06:54:19;;;;;;;28.33;8.05;;;5.80;99.90;;;;;;4941087;28;20389;-90
2023/01/31 06:56:45;;;;;;;37.15;8.82;;;5.90;99.90;;;;;;4955666;28;20594;-83
2023/01/31 06:59:10;;;;;;;22.40;6.95;;;6.00;99.90;;;;;;4945862;28;20472;-85
2023/01/31 07:01:36;;;;;;;26.40;7.47;;;6.00;99.90;;;;;;4943177;28;20027;-85
2023/01/31 07:04:01;;;;;;;28.98;8.82;;;6.00;99.90;;;;;;4946830;28;20058;-85
2023/01/31 07:06:27;;;;;;;28.88;9.07;;;5.90;99.90;;;;;;4943944;28;20446;-85
2023/01/31 07:08:55;;;;;;;29.45;8.45;;;5.90;99.90;;;;;;4942181;28;20058;-87
2023/01/31 07:11:21;;;;;;;23.80;6.82;;;5.90;99.90;;;;;;4940598;28;20036;-86
2023/01/31 07:13:49;;;;;;;30.55;7.15;;;5.90;99.90;;;;;;4940911;28;20027;-86
2023/01/31 07:16:15;;;;;;;27.98;5.93;;;5.90;99.90;;;;;;4939113;28;20028;-88
2023/01/31 07:18:41;;;;;;;27.90;7.72;;;6.00;99.90;;;;;;4936480;28;20038;-86
2023/01/31 07:21:07;;;;;;;22.17;7.63;;;6.00;99.90;;;;;;4938367;28;20035;-88
2023/01/31 07:23:32;;;;;;;17.05;4.90;;;5.90;99.90;;;;;;4945204;28;20450;-81
2023/01/31 07:26:01;;;;;;;28.40;7.80;;;5.90;99.90;;;;;;4940095;28;20023;-82
2023/01/31 07:28:27;;;;;;;29.48;8.32;;;5.90;99.90;;;;;;4946647;28;20028;-83
2023/01/31 07:30:52;;;;;;;31.13;8.82;;;5.90;99.90;;;;;;4938029;28;20035;-87
2023/01/31 07:33:20;;;;;;;26.05;7.47;;;5.90;99.90;;;;;;4940429;28;20051;-87
2023/01/31 07:35:46;;;;;;;25.50;7.75;;;6.00;99.90;;;;;;4940194;28;20391;-84
2023/01/31 07:38:11;;;;;;;32.83;8.00;;;6.00;99.90;;;;;;4943388;28;20034;-86
2023/01/31 07:40:38;;;;;;;38.22;9.40;;;6.00;99.90;;;;;;4938910;28;20507;-81
2023/01/31 07:43:04;;;;;;;15.75;6.60;;;6.00;99.90;;;;;;4955668;28;20098;-84
2023/01/31 07:45:32;;;;;;;19.98;6.10;;;5.90;99.90;;;;;;4939794;28;20015;-81
2023/01/31 07:47:58;;;;;;;24.38;7.72;;;5.90;99.90;;;;;;4944845;28;20027;-84
2023/01/31 07:50:26;;;;;;;29.23;8.00;;;5.90;99.90;;;;;;4946268;28;20078;-84
2023/01/31 07:52:57;;;;;;;27.92;7.10;;;5.90;99.90;;;;;;4938079;28;20038;-86
2023/01/31 07:55:23;;;;;;;34.38;8.48;;;6.00;99.90;;;;;;4937895;28;20031;-82
2023/01/31 07:57:49;;;;;;;22.73;7.35;;;5.90;99.90;;;;;;4946144;28;20083;-92
2023/01/31 08:05:46;;;;;;;26.23;7.00;;;5.80;99.90;;;;;;4935647;28;20178;-82
2023/01/31 08:08:14;;;;;;;31.35;8.25;;;5.90;99.90;;;;;;4939570;28;20453;-83
2023/01/31 08:10:42;;;;;;;23.00;6.90;;;5.90;99.90;;;;;;4938595;28;20037;-87
2023/01/31 08:13:10;;;;;;;23.90;6.15;;;5.90;99.90;;;;;;4940572;28;20077;-82
2023/01/31 08:15:36;;;;;;;25.83;6.35;;;6.00;99.90;;;;;;4943496;28;20020;-87
2023/01/31 08:18:02;;;;;;;23.88;6.80;;;6.00;99.90;;;;;;4940292;28;20031;-93
2023/01/31 08:20:27;;;;;;;29.67;6.70;;;6.10;99.90;;;;;;4954536;28;20031;-85
2023/01/31 08:22:58;;;;;;;14.30;3.75;;;6.00;99.90;;;;;;4954752;28;20425;-89
2023/01/31 08:25:27;;;;;;;16.48;6.30;;;6.00;99.90;;;;;;4953592;28;20027;-82
2023/01/31 08:27:53;;;;;;;18.02;5.85;;;6.20;99.90;;;;;;4947828;28;20034;-81
2023/01/31 08:30:21;;;;;;;21.45;6.72;;;6.10;99.90;;;;;;4938676;28;20035;-86
2023/01/31 08:32:47;;;;;;;27.42;6.80;;;6.20;99.90;;;;;;4940253;28;20023;-87
2023/01/31 08:35:13;;;;;;;23.85;6.18;;;6.20;99.90;;;;;;4944743;28;20507;-84
2023/01/31 08:37:38;;;;;;;13.23;5.30;;;6.20;99.90;;;;;;4948077;28;20497;-81
2023/01/31 08:40:05;;;;;;;27.88;6.35;;;6.20;99.90;;;;;;4945980;28;20035;-86
2023/01/31 08:42:30;;;;;;;16.95;6.25;;;6.20;99.90;;;;;;4941302;28;20027;-86
2023/01/31 08:44:59;;;;;;;21.83;6.22;;;6.30;99.90;;;;;;4950080;28;20032;-85
2023/01/31 08:47:24;;;;;;;22.00;6.47;;;6.30;99.90;;;;;;4944483;28;20472;-85
2023/01/31 08:49:50;;;;;;;25.65;6.05;;;6.40;99.90;;;;;;4940362;28;20070;-83
2023/01/31 08:52:15;;;;;;;17.63;6.55;;;6.40;99.90;;;;;;4937421;28;20036;-88
2023/01/31 08:54:41;;;;;;;20.58;6.28;;;6.40;99.90;;;;;;4936767;28;20364;-83
2023/01/31 08:57:07;;;;;;;23.85;7.22;;;6.40;99.90;;;;;;4937939;28;20048;-85
2023/01/31 08:59:35;;;;;;;33.38;6.78;;;6.50;99.90;;;;;;4941344;28;20027;-87
2023/01/31 09:02:01;;;;;;;26.17;6.53;;;6.60;99.90;;;;;;4945104;28;20062;-88
2023/01/31 09:04:26;;;;;;;22.52;4.50;;;6.60;99.90;;;;;;5100629;23;20490;-86
2023/01/31 09:06:53;;;;;;;23.33;6.45;;;6.60;99.90;;;;;;4965346;28;20034;-82
2023/01/31 09:09:19;;;;;;;21.50;5.22;;;6.70;99.90;;;;;;4983080;28;20438;-85
2023/01/31 09:11:44;;;;;;;25.60;5.72;;;6.70;99.90;;;;;;4968419;28;20026;-82
2023/01/31 09:14:10;;;;;;;20.95;4.97;;;6.70;99.90;;;;;;4990263;28;20137;-86
2023/01/31 09:16:37;;;;;;;25.17;5.70;;;6.60;99.90;;;;;;4988047;28;20037;-82
2023/01/31 09:19:02;;;;;;;21.35;6.03;;;6.80;99.90;;;;;;4984521;28;20026;-82
2023/01/31 09:21:28;;;;;;;23.83;5.50;;;6.90;99.90;;;;;;4989802;28;20045;-84
2023/01/31 09:24:05;;;;;;;19.67;6.43;;;7.00;99.90;;;;;;4988264;28;20018;-83
2023/01/31 09:26:31;;;;;;;23.73;5.63;;;6.80;99.90;;;;;;4987765;28;20092;-84
2023/01/31 09:28:57;;;;;;;21.52;4.82;;;6.90;99.90;;;;;;4979539;28;20566;-89
2023/01/31 09:31:23;;;;;;;23.85;5.38;;;6.90;99.90;;;;;;4967277;28;20458;-83
2023/01/31 09:33:49;;;;;;;20.48;5.25;;;6.80;99.90;;;;;;4961351;28;20037;-92
2023/01/31 09:36:17;;;;;;;14.15;4.90;;;6.80;99.90;;;;;;4971570;28;20022;-81
2023/01/31 09:38:43;;;;;;;23.67;5.80;;;6.90;99.90;;;;;;4978961;28;20053;-86
2023/01/31 09:41:36;;;;;;;9.95;4.00;;;7.00;99.90;;;;;;4992853;28;20030;-88
2023/01/31 09:44:33;;;;;;;21.95;4.18;;;7.00;99.90;;;;;;4970515;28;20026;-91
2023/01/31 09:47:12;;;;;;;19.65;6.32;;;7.00;99.90;;;;;;4988875;28;20107;-88
2023/01/31 09:49:47;;;;;;;21.95;5.03;;;7.10;99.90;;;;;;4982054;28;20041;-84
2023/01/31 09:52:16;;;;;;;21.50;4.55;;;7.20;99.90;;;;;;4968063;28;20038;-85
2023/01/31 09:54:41;;;;;;;22.38;5.30;;;7.30;99.90;;;;;;4971562;28;20156;-82
2023/01/31 09:57:16;;;;;;;15.20;4.50;;;7.10;99.90;;;;;;4986739;28;20105;-80
2023/01/31 10:00:01;;;;;;;17.35;5.00;;;7.10;99.90;;;;;;4987036;28;20023;-82
2023/01/31 10:02:35;;;;;;;27.67;4.90;;;7.20;99.90;;;;;;4993928;28;20521;-89
2023/01/31 10:05:18;;;;;;;22.85;4.88;;;7.40;99.90;;;;;;4991485;28;20026;-83
2023/01/31 10:07:48;;;;;;;;;;;7.20;99.90;;;;;;4990748;28;20033;-84
2023/01/31 10:10:35;;;;;;;24.77;4.88;;;7.40;99.90;;;;;;4979251;28;20127;-88
2023/01/31 10:13:24;;;;;;;28.80;6.72;;;7.50;99.90;;;;;;4969541;28;20031;-83
2023/01/31 10:16:16;;;;;;;15.30;4.70;;;7.40;99.90;;;;;;4981859;28;20070;-87
2023/01/31 10:18:45;;;;;;;13.68;4.47;;;7.40;99.90;;;;;;4988361;28;20065;-88
2023/01/31 10:21:31;;;;;;;17.73;4.03;;;7.50;99.90;;;;;;4991596;28;20006;-89
2023/01/31 10:24:05;;;;;;;16.38;4.13;;;7.40;99.90;;;;;;4989491;28;20130;-82
2023/01/31 10:26:36;;;;;;;19.88;4.72;;;7.50;99.90;;;;;;4989645;28;20042;-88
2023/01/31 10:29:26;;;;;;;13.15;3.78;;;7.50;99.90;;;;;;4986145;28;20101;-90
2023/01/31 10:31:57;;;;;;;20.10;4.50;;;7.40;99.90;;;;;;4966782;28;20042;-90
2023/01/31 10:34:23;;;;;;;16.05;4.75;;;7.40;99.90;;;;;;4982414;28;20359;-86
2023/01/31 10:36:51;;;;;;;24.08;4.22;;;7.50;99.90;;;;;;4970366;28;20076;-87
2023/01/31 10:39:52;;;;;;;25.67;4.63;;;7.50;99.90;;;;;;4969585;28;20064;-83
2023/01/31 10:42:38;;;;;;;19.05;4.63;;;7.60;99.90;;;;;;4966776;28;20074;-82
2023/01/31 10:45:20;;;;;;;13.43;3.92;;;7.60;99.90;;;;;;4961126;28;20106;-84
2023/01/31 10:48:18;;;;;;;24.73;4.85;;;7.60;99.90;;;;;;4966925;28;20509;-82
2023/01/31 10:50:55;;;;;;;15.88;3.72;;;7.60;99.90;;;;;;4966990;28;20051;-77
2023/01/31 10:53:38;;;;;;;19.48;4.53;;;7.70;99.90;;;;;;4969292;28;20501;-94
2023/01/31 10:56:15;;;;;;;18.73;4.00;;;7.70;99.90;;;;;;4969360;28;20031;-87
2023/01/31 10:58:41;;;;;;;20.30;4.22;;;7.90;99.90;;;;;;4971929;28;20149;-84
2023/01/31 11:01:10;;;;;;;14.63;3.72;;;7.90;99.90;;;;;;4977313;28;20046;-93
2023/01/31 11:03:37;;;;;;;16.05;4.18;;;8.00;99.90;;;;;;4964430;28;20144;-82
2023/01/31 11:06:05;;;;;;;19.42;4.97;;;8.00;99.90;;;;;;4985232;28;20018;-82
2023/01/31 11:08:46;;;;;;;16.73;3.97;;;8.00;99.90;;;;;;4977165;28;20041;-85
2023/01/31 11:11:15;;;;;;;16.50;3.33;;;8.00;99.90;;;;;;4976111;28;20034;-84
2023/01/31 11:14:00;;;;;;;17.58;4.75;;;8.10;99.90;;;;;;4990643;28;20114;-82
2023/01/31 11:16:37;;;;;;;24.48;4.40;;;8.00;99.90;;;;;;4986696;28;20023;-88
2023/01/31 11:19:22;;;;;;;19.02;3.88;;;8.10;99.90;;;;;;4972882;28;20036;-82
2023/01/31 11:21:53;;;;;;;12.32;4.30;;;8.00;99.90;;;;;;4988113;28;20022;-93
2023/01/31 11:24:24;;;;;;;21.70;4.80;;;8.00;99.90;;;;;;5151741;23;20046;-88
2023/01/31 11:27:12;;;;;;;18.92;4.35;;;8.20;99.90;;;;;;4989669;28;20026;-86
2023/01/31 11:29:44;;;;;;;21.65;4.53;;;8.10;99.90;;;;;;4987834;28;20117;-87
2023/01/31 11:32:24;;;;;;;21.15;4.93;;;8.20;99.90;;;;;;4984690;28;20038;-82
2023/01/31 11:35:16;;;;;;;19.85;4.60;;;8.20;99.90;;;;;;4983808;28;20030;-82
2023/01/31 11:37:55;;;;;;;21.58;6.25;;;8.10;99.90;;;;;;4977242;28;20451;-80
2023/01/31 11:40:32;;;;;;;19.60;5.22;;;8.30;99.90;;;;;;4979755;28;20037;-82
2023/01/31 11:43:00;;;;;;;18.23;5.55;;;8.30;99.90;;;;;;4997592;28;20078;-87
2023/01/31 11:45:33;;;;;;;14.02;4.75;;;8.20;99.90;;;;;;4987208;28;20471;-84
2023/01/31 11:48:08;;;;;;;17.88;5.80;;;8.20;99.90;;;;;;4982348;28;20402;-85
2023/01/31 11:50:36;;;;;;;12.57;4.45;;;8.20;99.90;;;;;;4975602;28;20038;-85
2023/01/31 11:53:25;;;;;;;23.40;5.40;;;8.20;99.90;;;;;;4977475;28;20030;-82
2023/01/31 11:55:54;;;;;;;20.67;5.50;;;8.20;99.90;;;;;;4983164;28;20026;-83
2023/01/31 11:58:31;;;;;;;19.05;5.50;;;8.10;99.90;;;;;;4981579;28;20018;-83
2023/01/31 12:01:01;;;;;;;17.85;5.20;;;8.10;99.90;;;;;;4983874;28;20414;-83
2023/01/31 12:03:27;;;;;;;11.55;5.85;;;8.10;99.90;;;;;;4986831;28;20081;-83
2023/01/31 12:06:08;;;;;;;18.92;5.78;;;8.10;99.90;;;;;;4983458;28;20049;-83
2023/01/31 12:08:43;;;;;;;17.25;5.93;;;8.10;99.90;;;;;;4976983;28;20027;-83
2023/01/31 12:11:27;;;;;;;21.02;6.60;;;8.10;99.90;;;;;;4982692;28;20038;-87
2023/01/31 12:14:11;;;;;;;22.33;6.03;;;8.20;99.90;;;;;;4977767;28;20042;-83
2023/01/31 12:16:40;;;;;;;21.27;6.25;;;8.10;99.90;;;;;;5000259;28;20245;-89
2023/01/31 12:19:47;;;;;;;19.70;6.13;;;8.10;99.90;;;;;;4982924;28;20411;-86
2023/01/31 12:22:34;;;;;;;25.42;6.38;;;8.10;99.90;;;;;;4984527;28;20121;-84
2023/01/31 12:25:21;;;;;;;27.35;7.45;;;8.20;99.90;;;;;;4990753;28;20066;-83
2023/01/31 12:28:05;;;;;;;18.70;6.75;;;8.20;99.90;;;;;;4980722;28;20035;-82
2023/01/31 12:31:09;;;;;;;18.85;7.25;;;8.20;99.90;;;;;;4999946;28;20739;-86
2023/01/31 12:33:58;;;;;;;33.67;7.32;;;8.20;99.90;;;;;;4948765;28;20027;-84
2023/01/31 12:36:42;;;;;;;30.13;8.85;;;8.20;99.90;;;;;;4949983;28;20067;-82
2023/01/31 12:39:17;;;;;;;25.10;6.78;;;8.30;99.90;;;;;;5120416;23;20057;-88
2023/01/31 12:41:55;;;;;;;27.00;7.05;;;8.30;99.90;;;;;;4985766;28;20482;-87
2023/01/31 12:44:50;;;;;;;21.63;7.05;;;8.20;99.90;;;;;;4988722;28;20019;-87
2023/01/31 12:47:40;;;;;;;18.60;7.15;;;8.20;99.90;;;;;;4988694;28;20010;-86
2023/01/31 12:50:24;;;;;;;28.15;8.48;;;8.20;99.90;;;;;;4974740;28;20046;-88
2023/01/31 12:53:01;;;;;;;19.67;7.88;;;8.10;99.90;;;;;;4972333;28;20018;-87
2023/01/31 12:56:17;;;;;;;17.23;7.18;;;8.10;99.90;;;;;;4990921;28;20114;-88
2023/01/31 12:59:03;;;;;;;29.80;9.00;;;8.00;99.90;;;;;;4943206;29;20086;-88
2023/01/31 13:01:32;;;;;;;21.27;8.77;;;7.90;99.90;;;;;;4969131;28;20043;-87
2023/01/31 13:04:18;;;;;;;26.13;9.07;;;7.90;99.90;;;;;;4989824;28;20310;-88
2023/01/31 13:06:52;;;;;;;28.15;8.60;;;7.80;99.90;;;;;;4972715;28;20042;-84
2023/01/31 13:09:24;;;;;;;28.98;10.88;;;7.80;99.90;;;;;;4990025;28;20029;-87
2023/01/31 13:11:56;;;;;;;21.05;9.52;;;7.90;99.90;;;;;;4989599;28;20517;-85
2023/01/31 13:14:25;;;;;;;28.77;9.80;;;7.90;99.90;;;;;;4990113;28;20034;-88
2023/01/31 13:16:59;;;;;;;30.65;11.52;;;7.90;99.90;;;;;;4970115;28;20034;-80
2023/01/31 13:19:30;;;;;;;32.00;11.52;;;8.00;99.90;;;;;;4989285;28;20411;-87